Terminal Aerodrome Forecast
Issued by NWS

Home | Current Version | Previous Version | Text Only | Print | Product List | Glossary On
Versions: 1 2 3 4 5 6 7 8 9 10 11 12 13 14 15 16
000
FTUS44 KBMX 271700
TAFANB
TAF
KANB 271725Z 2718/2818 33009G18KT P6SM FEW025 BKN035
      TEMPO 2718/2720 BKN030
     FM280100 35004KT P6SM SCT030
     FM281500 03004KT P6SM SCT030=

USA.gov is the U.S. government's official web portal to all federal, state and local government web resources and services.